createdAt,value
2018-10-21T00:00:05.699Z,65.54
2018-10-21T00:02:33.846Z,66.36
2018-10-21T00:05:01.956Z,66.28
2018-10-21T00:07:30.345Z,66.53
2018-10-21T00:09:58.570Z,66.22
2018-10-21T00:12:27.509Z,67.00
2018-10-21T00:14:55.669Z,66.35
2018-10-21T00:17:23.797Z,67.14
2018-10-21T00:19:51.927Z,66.87
2018-10-21T00:22:20.261Z,67.04
2018-10-21T00:24:48.571Z,66.76
2018-10-21T00:27:16.992Z,67.23
2018-10-21T00:29:45.909Z,66.92
2018-10-21T00:32:14.257Z,66.99
2018-10-21T00:34:42.550Z,67.49
2018-10-21T00:37:10.853Z,66.61
2018-10-21T00:39:39.039Z,66.62
2018-10-21T00:42:07.443Z,66.53
2018-10-21T00:44:35.608Z,66.67
2018-10-21T00:47:03.797Z,66.23
2018-10-21T00:49:32.103Z,66.51
2018-10-21T00:52:00.231Z,66.80
2018-10-21T00:54:28.589Z,67.79
2018-10-21T00:56:56.800Z,67.03
2018-10-21T00:59:24.991Z,67.09
2018-10-21T01:01:53.234Z,67.40
2018-10-21T01:04:21.585Z,67.69
2018-10-21T01:06:49.777Z,67.27
2018-10-21T01:09:18.282Z,67.75
2018-10-21T01:11:46.324Z,67.54
2018-10-21T01:14:14.487Z,68.10
2018-10-21T01:16:42.647Z,68.40
2018-10-21T01:19:11.467Z,68.21
2018-10-21T01:21:39.719Z,67.69
2018-10-21T01:24:08.112Z,67.74
2018-10-21T01:26:36.340Z,68.34
2018-10-21T01:29:04.565Z,68.23
2018-10-21T01:31:32.730Z,68.19
2018-10-21T01:34:01.130Z,68.06
2018-10-21T01:36:30.466Z,68.21
2018-10-21T01:38:58.803Z,68.60
2018-10-21T01:41:26.954Z,68.71
2018-10-21T01:43:55.236Z,69.09
2018-10-21T01:46:23.432Z,70.27
2018-10-21T01:48:51.730Z,70.87
2018-10-21T01:51:20.184Z,70.48
2018-10-21T01:53:48.326Z,71.54
2018-10-21T01:56:16.632Z,71.53
2018-10-21T01:58:44.787Z,71.49
2018-10-21T02:01:13.145Z,72.09
2018-10-21T02:03:41.445Z,71.94
2018-10-21T02:06:09.622Z,72.17
2018-10-21T02:08:37.993Z,72.52
2018-10-21T02:11:06.153Z,72.16
2018-10-21T02:13:34.458Z,71.77
2018-10-21T02:16:02.845Z,71.33
2018-10-21T02:18:31.053Z,71.20
2018-10-21T02:20:59.360Z,70.22
2018-10-21T02:23:27.692Z,70.45
2018-10-21T02:25:56.737Z,70.10
2018-10-21T02:28:24.867Z,70.67
2018-10-21T02:30:53.010Z,70.29
2018-10-21T02:33:21.183Z,71.16
2018-10-21T02:35:49.769Z,71.15
2018-10-21T02:38:18.531Z,71.54
2018-10-21T02:41:37.979Z,70.97
2018-10-21T02:44:08.477Z,71.35
2018-10-21T02:46:37.501Z,72.13
2018-10-21T02:49:06.575Z,71.66
2018-10-21T02:51:34.738Z,72.29
2018-10-21T02:54:03.001Z,72.63
2018-10-21T02:56:31.157Z,73.16
2018-10-21T02:58:59.312Z,72.22
2018-10-21T03:01:27.643Z,72.79
2018-10-21T03:03:55.817Z,71.88
2018-10-21T03:06:24.000Z,71.89
2018-10-21T03:08:52.146Z,71.89
2018-10-21T03:11:20.486Z,72.42
2018-10-21T03:13:48.674Z,72.41
2018-10-21T03:16:16.994Z,72.37
2018-10-21T03:18:45.151Z,72.58
2018-10-21T03:21:13.572Z,72.68
2018-10-21T03:23:41.596Z,72.02
2018-10-21T03:26:09.945Z,72.19
2018-10-21T03:28:38.062Z,71.97
2018-10-21T03:31:06.213Z,72.43
2018-10-21T03:33:34.476Z,72.50
2018-10-21T03:36:03.515Z,72.64
2018-10-21T03:38:31.652Z,73.08
2018-10-21T03:40:59.964Z,73.91
2018-10-21T03:43:28.133Z,73.77
2018-10-21T03:45:56.574Z,74.67
2018-10-21T03:48:24.864Z,74.46
2018-10-21T03:50:52.980Z,74.71
2018-10-21T03:53:21.241Z,74.65
2018-10-21T03:55:49.396Z,74.87
2018-10-21T03:58:17.563Z,74.87
2018-10-21T04:00:47.209Z,75.08
2018-10-21T04:03:15.394Z,75.57
2018-10-21T04:05:43.974Z,75.34
2018-10-21T04:08:12.123Z,75.69
2018-10-21T04:10:41.128Z,76.19
2018-10-21T04:13:09.403Z,76.94
2018-10-21T04:15:37.565Z,77.37
2018-10-21T04:18:05.866Z,77.77
2018-10-21T04:20:34.847Z,77.67
2018-10-21T04:23:03.623Z,77.54
2018-10-21T04:25:33.045Z,77.56
2018-10-21T04:28:02.212Z,77.34
2018-10-21T04:30:31.335Z,77.76
2018-10-21T04:34:03.006Z,77.93
2018-10-21T04:36:32.641Z,78.11
2018-10-21T04:40:21.080Z,79.19
2018-10-21T04:42:50.652Z,79.33
2018-10-21T04:45:20.314Z,79.76
2018-10-21T04:47:48.465Z,79.20
2018-10-21T04:50:16.701Z,79.75
2018-10-21T04:52:46.116Z,79.28
2018-10-21T04:55:15.935Z,78.96
2018-10-21T04:57:45.531Z,80.03
2018-10-21T05:00:18.914Z,79.93
2018-10-21T05:02:47.305Z,80.42
2018-10-21T05:05:15.759Z,80.30
2018-10-21T05:07:44.814Z,80.50
2018-10-21T05:10:36.748Z,81.17
2018-10-21T05:13:11.706Z,80.63
2018-10-21T05:15:40.116Z,80.70
2018-10-21T05:18:08.452Z,81.11
2018-10-21T05:20:36.664Z,80.78
2018-10-21T05:23:04.929Z,81.03
2018-10-21T05:25:34.010Z,81.13
2018-10-21T05:28:02.217Z,81.12
2018-10-21T05:30:30.897Z,81.01
2018-10-21T05:32:59.212Z,80.84
2018-10-21T05:35:27.370Z,81.33
2018-10-21T05:37:55.812Z,81.66
2018-10-21T05:40:23.960Z,81.64
2018-10-21T05:42:52.242Z,81.73
2018-10-21T05:45:20.427Z,81.86
2018-10-21T05:47:49.107Z,82.28
2018-10-21T05:50:17.385Z,81.37
2018-10-21T05:52:46.924Z,82.05
2018-10-21T05:55:15.529Z,81.76
2018-10-21T05:57:43.879Z,81.89
2018-10-21T06:00:14.755Z,81.87
2018-10-21T06:02:43.298Z,82.32
2018-10-21T06:05:45.411Z,82.29
2018-10-21T06:08:13.896Z,82.26
2018-10-21T06:10:42.772Z,82.08
2018-10-21T06:13:11.265Z,81.87
2018-10-21T06:15:39.534Z,81.57
2018-10-21T06:18:10.533Z,81.59
2018-10-21T06:20:41.919Z,81.70
2018-10-21T06:23:10.302Z,81.57
2018-10-21T06:25:39.489Z,81.07
2018-10-21T06:28:07.899Z,82.16
2018-10-21T06:30:36.066Z,81.15
2018-10-21T06:33:11.102Z,80.98
2018-10-21T06:35:39.267Z,80.39
2018-10-21T06:38:07.681Z,79.83
2018-10-21T06:40:35.814Z,80.32
2018-10-21T06:43:04.422Z,79.65
2018-10-21T06:45:32.687Z,79.38
2018-10-21T06:48:00.980Z,79.77
2018-10-21T06:50:29.286Z,79.41
2018-10-21T06:52:57.450Z,78.96
2018-10-21T06:55:25.614Z,78.63
2018-10-21T06:57:54.020Z,78.25
2018-10-21T07:00:22.138Z,78.16
2018-10-21T07:02:50.326Z,78.19
2018-10-21T07:05:35.511Z,77.56
2018-10-21T07:08:04.004Z,77.61
2018-10-21T07:10:32.177Z,77.53
2018-10-21T07:13:00.294Z,77.04
2018-10-21T07:15:29.163Z,77.21
2018-10-21T07:17:57.298Z,76.32
2018-10-21T07:20:25.434Z,75.95
2018-10-21T07:22:53.583Z,75.73
2018-10-21T07:25:21.708Z,76.03
2018-10-21T07:27:49.902Z,75.59
2018-10-21T07:30:17.988Z,74.69
2018-10-21T07:32:46.154Z,74.82
2018-10-21T07:35:14.421Z,73.65
2018-10-21T07:37:43.250Z,73.67
2018-10-21T07:40:12.467Z,73.45
2018-10-21T07:42:40.955Z,72.88
2018-10-21T07:45:09.104Z,73.00
2018-10-21T07:47:37.250Z,72.12
2018-10-21T07:50:05.829Z,72.54
2018-10-21T07:52:34.260Z,72.09
2018-10-21T07:55:02.478Z,71.85
2018-10-21T07:57:30.653Z,72.19
2018-10-21T07:59:58.795Z,71.73
2018-10-21T08:02:26.940Z,71.18
2018-10-21T08:04:55.170Z,69.95
2018-10-21T08:08:09.208Z,69.23
2018-10-21T08:10:37.432Z,70.64
2018-10-21T08:13:06.121Z,68.91
2018-10-21T08:15:35.212Z,69.20
2018-10-21T08:18:03.520Z,69.23
2018-10-21T08:20:35.870Z,68.63
2018-10-21T08:23:04.590Z,68.00
2018-10-21T08:25:32.817Z,67.36
2018-10-21T08:28:01.079Z,67.23
2018-10-21T08:30:29.280Z,65.92
2018-10-21T08:32:57.477Z,66.32
2018-10-21T08:35:25.676Z,66.21
2018-10-21T08:37:53.875Z,65.38
2018-10-21T08:40:22.117Z,64.95
2018-10-21T08:42:50.340Z,65.36
2018-10-21T08:45:18.594Z,65.28
2018-10-21T08:47:46.766Z,65.64
2018-10-21T08:50:15.064Z,66.62
2018-10-21T08:52:50.048Z,66.10
2018-10-21T08:55:18.456Z,65.09
2018-10-21T08:57:46.623Z,57.71
2018-10-21T09:00:17.649Z,42.91
2018-10-21T09:02:46.091Z,33.66
2018-10-21T09:05:16.715Z,28.27
2018-10-21T09:07:45.130Z,28.54
2018-10-21T09:10:14.604Z,24.49
2018-10-21T09:12:42.850Z,21.49
2018-10-21T09:15:13.832Z,19.81
2018-10-21T09:17:42.211Z,18.09
2018-10-21T09:20:13.502Z,17.17
2018-10-21T09:22:41.929Z,16.41
2018-10-21T09:25:11.207Z,15.52
2018-10-21T09:27:40.451Z,14.80
2018-10-21T09:30:10.754Z,14.09
2018-10-21T09:32:39.010Z,14.00
2018-10-21T09:35:10.038Z,15.08
2018-10-21T09:37:38.738Z,19.31
2018-10-21T09:40:09.648Z,18.52
2018-10-21T09:42:38.575Z,16.00
2018-10-21T09:45:08.929Z,14.76
2018-10-21T09:47:37.289Z,13.62
2018-10-21T09:50:06.185Z,14.29
2018-10-21T09:52:34.539Z,13.89
2018-10-21T09:55:02.948Z,17.29
2018-10-21T09:57:31.116Z,13.99
2018-10-21T09:59:59.401Z,13.64
2018-10-21T10:02:33.271Z,11.69
2018-10-21T10:05:01.449Z,10.63
2018-10-21T10:07:30.735Z,10.15
2018-10-21T10:09:58.870Z,10.33
2018-10-21T10:12:28.175Z,11.52
2018-10-21T10:14:57.127Z,13.14
2018-10-21T10:17:25.790Z,15.32
2018-10-21T10:19:54.638Z,14.13
2018-10-21T10:22:22.958Z,12.17
2018-10-21T10:24:51.204Z,10.66
2018-10-21T10:27:19.674Z,10.70
2018-10-21T10:29:47.911Z,11.81
2018-10-21T10:32:15.994Z,11.04
2018-10-21T10:34:44.226Z,10.97
2018-10-21T10:37:12.492Z,11.44
2018-10-21T10:39:40.833Z,12.55
2018-10-21T10:42:10.054Z,14.91
2018-10-21T10:44:38.241Z,18.36
2018-10-21T10:47:06.637Z,18.65
2018-10-21T10:49:34.847Z,21.00
2018-10-21T10:52:03.266Z,22.60
2018-10-21T10:54:31.433Z,22.74
2018-10-21T10:56:59.757Z,22.60
2018-10-21T10:59:27.953Z,18.94
2018-10-21T11:01:56.357Z,19.55
2018-10-21T11:04:24.527Z,16.26
2018-10-21T11:06:52.911Z,13.89
2018-10-21T11:09:21.098Z,14.10
2018-10-21T11:11:49.431Z,12.37
2018-10-21T11:14:17.620Z,11.92
2018-10-21T11:16:46.042Z,10.97
2018-10-21T11:19:15.404Z,10.51
2018-10-21T11:21:43.690Z,9.65
2018-10-21T11:24:11.976Z,10.89
2018-10-21T11:26:40.720Z,10.62
2018-10-21T11:29:09.086Z,9.74
2018-10-21T11:31:37.954Z,10.60
2018-10-21T11:34:06.196Z,12.71
2018-10-21T11:36:34.409Z,13.81
2018-10-21T11:39:03.264Z,14.48
2018-10-21T11:41:31.870Z,14.64
2018-10-21T11:44:00.486Z,14.71
2018-10-21T11:46:28.798Z,15.73
2018-10-21T11:48:57.083Z,18.81
2018-10-21T11:51:26.694Z,18.02
2018-10-21T11:53:55.049Z,14.61
2018-10-21T11:56:23.206Z,16.55
2018-10-21T11:58:53.030Z,18.30
2018-10-21T12:01:21.221Z,19.15
2018-10-21T12:03:49.788Z,22.87
2018-10-21T12:06:18.200Z,23.19
2018-10-21T12:08:46.500Z,27.00
2018-10-21T12:11:14.709Z,28.53
2018-10-21T12:13:43.061Z,29.36
2018-10-21T12:16:11.304Z,29.69
2018-10-21T12:18:39.705Z,29.06
2018-10-21T12:21:07.947Z,29.72
2018-10-21T12:23:36.304Z,30.52
2018-10-21T12:26:04.680Z,30.77
2018-10-21T12:28:33.495Z,31.57
2018-10-21T12:31:01.734Z,32.33
2018-10-21T12:33:34.559Z,32.77
2018-10-21T12:36:02.827Z,33.13
2018-10-21T12:38:31.161Z,34.33
2018-10-21T12:40:59.382Z,34.90
2018-10-21T12:43:27.677Z,34.85
2018-10-21T12:45:55.900Z,35.37
2018-10-21T12:48:24.806Z,36.62
2018-10-21T12:50:52.959Z,37.13
2018-10-21T12:53:21.269Z,36.71
2018-10-21T12:55:50.103Z,36.97
2018-10-21T12:58:18.821Z,37.15
2018-10-21T13:00:46.832Z,37.29
2018-10-21T13:03:14.982Z,37.37
2018-10-21T13:05:43.293Z,35.46
2018-10-21T13:08:11.667Z,35.19
2018-10-21T13:10:39.775Z,35.15
2018-10-21T13:13:08.086Z,33.35
2018-10-21T13:15:36.210Z,32.27
2018-10-21T13:18:05.350Z,31.05
2018-10-21T13:20:34.561Z,28.32
2018-10-21T13:23:02.832Z,24.32
2018-10-21T13:25:31.020Z,21.79
2018-10-21T13:27:59.982Z,20.32
2018-10-21T13:30:28.115Z,18.76
2018-10-21T13:32:56.564Z,17.68
2018-10-21T13:35:24.753Z,16.89
2018-10-21T13:37:54.315Z,15.51
2018-10-21T13:40:23.352Z,15.85
2018-10-21T13:42:51.605Z,15.69
2018-10-21T13:45:19.800Z,13.98
2018-10-21T13:47:48.010Z,14.62
2018-10-21T13:50:16.202Z,13.65
2018-10-21T13:52:44.553Z,14.29
2018-10-21T13:55:13.186Z,15.59
2018-10-21T13:57:41.466Z,14.28
2018-10-21T14:00:10.542Z,15.50
2018-10-21T14:02:38.858Z,15.85
2018-10-21T14:05:07.948Z,15.31
2018-10-21T14:07:36.182Z,14.76
2018-10-21T14:10:04.659Z,15.83
2018-10-21T14:12:32.857Z,15.72
2018-10-21T14:15:01.394Z,16.21
2018-10-21T14:17:29.568Z,16.88
2018-10-21T14:19:57.758Z,17.63
2018-10-21T14:22:25.954Z,18.08
2018-10-21T14:24:54.227Z,18.61
2018-10-21T14:27:22.357Z,18.45
2018-10-21T14:29:50.567Z,18.00
2018-10-21T14:32:18.690Z,18.68
2018-10-21T14:34:46.840Z,18.87
2018-10-21T14:37:15.365Z,17.81
2018-10-21T14:39:43.501Z,18.09
2018-10-21T14:42:11.757Z,18.53
2018-10-21T14:44:39.863Z,18.71
2018-10-21T14:47:08.028Z,19.77
2018-10-21T14:49:36.235Z,21.37
2018-10-21T14:52:04.791Z,21.61
2018-10-21T14:54:33.615Z,21.24
2018-10-21T14:57:01.832Z,23.69
2018-10-21T14:59:29.947Z,25.98
2018-10-21T15:01:58.090Z,26.59
2018-10-21T15:04:26.297Z,27.17
2018-10-21T15:06:54.697Z,27.70
2018-10-21T15:09:22.920Z,28.40
2018-10-21T15:11:51.926Z,30.47
2018-10-21T15:14:20.325Z,31.79
2018-10-21T15:16:49.138Z,32.24
2018-10-21T15:19:17.295Z,33.92
2018-10-21T15:21:46.175Z,34.85
2018-10-21T15:24:14.358Z,36.56
2018-10-21T15:26:42.504Z,38.08
2018-10-21T15:29:10.731Z,38.86
2018-10-21T15:31:38.966Z,40.13
2018-10-21T15:34:07.177Z,40.34
2018-10-21T15:36:36.011Z,41.95
2018-10-21T15:39:07.406Z,42.05
2018-10-21T15:41:36.160Z,43.29
2018-10-21T15:44:05.316Z,43.86
2018-10-21T15:46:33.544Z,44.45
2018-10-21T15:49:01.819Z,44.20
2018-10-21T15:51:30.034Z,44.75
2018-10-21T15:53:58.270Z,45.08
2018-10-21T15:56:26.461Z,45.60
2018-10-21T15:58:54.914Z,46.47
2018-10-21T16:01:24.080Z,46.48
2018-10-21T16:03:52.230Z,46.96
2018-10-21T16:06:20.478Z,47.28
2018-10-21T16:08:48.651Z,48.02
2018-10-21T16:11:16.906Z,47.69
2018-10-21T16:13:45.341Z,48.81
2018-10-21T16:16:13.637Z,49.57
2018-10-21T16:18:41.690Z,49.44
2018-10-21T16:21:09.852Z,50.51
2018-10-21T16:23:38.017Z,50.59
2018-10-21T16:26:06.336Z,51.50
2018-10-21T16:28:34.485Z,51.44
2018-10-21T16:31:02.752Z,52.64
2018-10-21T16:33:30.911Z,52.45
2018-10-21T16:35:59.113Z,52.22
2018-10-21T16:38:27.511Z,53.42
2018-10-21T16:40:56.225Z,53.84
2018-10-21T16:43:24.429Z,54.13
2018-10-21T16:45:52.620Z,53.96
2018-10-21T16:48:20.830Z,54.61
2018-10-21T16:50:49.240Z,54.60
2018-10-21T16:53:17.457Z,54.14
2018-10-21T16:55:45.598Z,55.71
2018-10-21T16:58:13.746Z,55.50
2018-10-21T17:00:42.186Z,55.64
2018-10-21T17:03:10.082Z,56.45
2018-10-21T17:05:38.365Z,56.51
2018-10-21T17:08:06.476Z,56.13
2018-10-21T17:10:34.957Z,57.12
2018-10-21T17:13:02.930Z,57.80
2018-10-21T17:15:31.122Z,57.37
2018-10-21T17:17:59.233Z,58.17
2018-10-21T17:20:27.405Z,58.25
2018-10-21T17:22:55.655Z,58.81
2018-10-21T17:25:23.897Z,59.04
2018-10-21T17:27:52.072Z,58.76
2018-10-21T17:30:20.280Z,59.14
2018-10-21T17:32:49.273Z,58.92
2018-10-21T17:35:17.433Z,59.88
2018-10-21T17:37:45.603Z,59.59
2018-10-21T17:40:14.868Z,60.72
2018-10-21T17:42:43.781Z,60.40
2018-10-21T17:45:13.477Z,60.40
2018-10-21T17:47:41.696Z,60.60
2018-10-21T17:50:11.377Z,61.06
2018-10-21T17:52:39.663Z,61.09
2018-10-21T17:55:08.038Z,61.89
2018-10-21T17:57:36.172Z,61.39
2018-10-21T18:00:05.958Z,62.52
2018-10-21T18:02:34.144Z,61.78
2018-10-21T18:05:03.304Z,62.61
2018-10-21T18:07:31.454Z,62.81
2018-10-21T18:09:59.702Z,63.41
2018-10-21T18:12:27.827Z,63.30
2018-10-21T18:14:56.020Z,63.04
2018-10-21T18:17:24.218Z,63.97
2018-10-21T18:19:52.516Z,63.53
2018-10-21T18:22:20.724Z,63.80
2018-10-21T18:24:48.956Z,64.51
2018-10-21T18:27:17.231Z,63.36
2018-10-21T18:29:45.481Z,62.92
2018-10-21T18:32:13.762Z,64.27
2018-10-21T18:34:42.000Z,64.36
2018-10-21T18:37:10.269Z,63.55
2018-10-21T18:39:38.633Z,63.61
2018-10-21T18:42:06.840Z,64.78
2018-10-21T18:44:35.282Z,64.29
2018-10-21T18:47:04.289Z,64.67
2018-10-21T18:49:32.471Z,64.98
2018-10-21T18:52:00.747Z,65.10
2018-10-21T18:54:28.878Z,65.23
2018-10-21T18:56:57.120Z,65.60
2018-10-21T18:59:25.349Z,64.43
2018-10-21T19:01:53.577Z,64.21
2018-10-21T19:04:22.120Z,64.77
2018-10-21T19:06:50.640Z,64.72
2018-10-21T19:09:18.904Z,64.53
2018-10-21T19:11:47.125Z,64.97
2018-10-21T19:14:16.201Z,65.45
2018-10-21T19:16:44.477Z,65.80
2018-10-21T19:19:12.663Z,65.78
2018-10-21T19:21:41.252Z,66.64
2018-10-21T19:24:16.107Z,67.09
2018-10-21T19:26:44.343Z,66.80
2018-10-21T19:29:12.541Z,67.24
2018-10-21T19:31:40.710Z,67.60
2018-10-21T19:34:08.928Z,67.13
2018-10-21T19:36:37.087Z,67.33
2018-10-21T19:39:09.352Z,67.98
2018-10-21T19:41:37.747Z,68.60
2018-10-21T19:44:07.177Z,68.26
2018-10-21T19:46:35.509Z,68.64
2018-10-21T19:49:03.861Z,68.57
2018-10-21T19:51:32.085Z,68.94
2018-10-21T19:54:00.386Z,68.55
2018-10-21T19:56:31.454Z,68.54
2018-10-21T19:59:00.885Z,69.37
2018-10-21T20:01:29.063Z,69.77
2018-10-21T20:03:57.421Z,69.36
2018-10-21T20:06:25.780Z,70.04
2018-10-21T20:08:54.100Z,70.01
2018-10-21T20:11:22.983Z,69.17
2018-10-21T20:13:51.472Z,69.37
2018-10-21T20:16:20.128Z,69.77
2018-10-21T20:18:48.392Z,69.10
2018-10-21T20:21:16.595Z,69.75
2018-10-21T20:23:44.932Z,70.16
2018-10-21T20:26:13.178Z,70.49
2018-10-21T20:28:41.672Z,70.03
2018-10-21T20:31:09.844Z,70.71
2018-10-21T20:33:37.987Z,69.87
2018-10-21T20:36:06.244Z,69.37
2018-10-21T20:38:34.583Z,69.80
2018-10-21T20:41:03.433Z,70.40
2018-10-21T20:43:31.568Z,70.59
2018-10-21T20:45:59.768Z,69.67
2018-10-21T20:48:28.019Z,69.89
2018-10-21T20:50:56.258Z,70.03
2018-10-21T20:53:24.570Z,70.33
2018-10-21T20:55:53.857Z,70.63
2018-10-21T20:58:22.077Z,70.93
2018-10-21T21:00:50.248Z,71.46
2018-10-21T21:03:18.410Z,71.60
2018-10-21T21:05:46.634Z,71.49
2018-10-21T21:08:14.787Z,72.14
2018-10-21T21:10:43.002Z,72.25
2018-10-21T21:13:11.201Z,72.47
2018-10-21T21:15:39.349Z,71.74
2018-10-21T21:18:07.629Z,71.46
2018-10-21T21:20:35.818Z,71.82
2018-10-21T21:23:04.209Z,72.35
2018-10-21T21:25:32.369Z,72.58
2018-10-21T21:28:00.556Z,72.55
2018-10-21T21:30:28.710Z,73.40
2018-10-21T21:32:56.880Z,73.27
2018-10-21T21:35:25.062Z,74.20
2018-10-21T21:37:53.668Z,73.81
2018-10-21T21:40:21.868Z,74.47
2018-10-21T21:42:50.136Z,74.07
2018-10-21T21:45:18.292Z,74.87
2018-10-21T21:47:47.166Z,74.36
2018-10-21T21:50:15.311Z,74.11
2018-10-21T21:52:44.118Z,74.15
2018-10-21T21:55:12.214Z,74.43
2018-10-21T21:57:40.334Z,73.45
2018-10-21T22:00:12.465Z,73.73
2018-10-21T22:02:40.453Z,74.10
2018-10-21T22:05:09.272Z,73.03
2018-10-21T22:07:38.721Z,73.08
2018-10-21T22:10:07.813Z,73.01
2018-10-21T22:12:35.964Z,72.38
2018-10-21T22:15:04.561Z,72.68
2018-10-21T22:17:32.840Z,72.22
2018-10-21T22:20:00.933Z,72.45
2018-10-21T22:22:29.299Z,72.17
2018-10-21T22:24:57.475Z,72.15
2018-10-21T22:27:25.864Z,72.04
2018-10-21T22:29:54.081Z,72.61
2018-10-21T22:32:22.409Z,72.62
2018-10-21T22:34:50.557Z,72.30
2018-10-21T22:37:18.776Z,72.10
2018-10-21T22:39:46.927Z,72.39
2018-10-21T22:42:15.241Z,72.24
2018-10-21T22:44:43.309Z,73.09
2018-10-21T22:47:11.653Z,72.95
2018-10-21T22:49:39.767Z,72.54
2018-10-21T22:52:07.893Z,73.09
2018-10-21T22:54:36.045Z,72.61
2018-10-21T22:57:09.266Z,73.28
2018-10-21T22:59:37.365Z,73.33
2018-10-21T23:02:05.773Z,73.70
2018-10-21T23:04:34.006Z,73.02
2018-10-21T23:07:02.316Z,73.32
2018-10-21T23:09:30.618Z,73.36
2018-10-21T23:11:58.907Z,72.96
2018-10-21T23:14:27.116Z,73.23
2018-10-21T23:16:55.535Z,73.70
2018-10-21T23:19:42.053Z,73.94
2018-10-21T23:22:10.429Z,73.58
2018-10-21T23:24:39.245Z,73.52
2018-10-21T23:27:08.025Z,73.10
2018-10-21T23:29:36.207Z,73.84
2018-10-21T23:32:04.523Z,73.64
2018-10-21T23:34:32.825Z,74.22
2018-10-21T23:37:00.943Z,73.74
2018-10-21T23:39:29.291Z,73.76
2018-10-21T23:41:58.582Z,73.71
2018-10-21T23:44:26.665Z,74.08
2018-10-21T23:46:54.774Z,74.24
2018-10-21T23:49:23.085Z,74.71
2018-10-21T23:51:51.316Z,74.28
2018-10-21T23:54:19.658Z,74.34
2018-10-21T23:56:47.767Z,73.76
2018-10-21T23:59:15.931Z,74.26
